createdAt,value
2022-11-30T00:00:41.430Z,20.03
2022-11-30T00:03:08.698Z,18.63
2022-11-30T00:05:36.227Z,19.00
2022-11-30T00:08:03.402Z,20.07
2022-11-30T00:10:30.142Z,20.30
2022-11-30T00:12:56.962Z,19.60
2022-11-30T00:15:23.692Z,20.87
2022-11-30T00:17:50.431Z,21.07
2022-11-30T00:20:17.164Z,20.37
2022-11-30T00:22:43.969Z,20.03
2022-11-30T00:25:10.891Z,17.70
2022-11-30T00:27:37.722Z,19.43
2022-11-30T00:30:06.212Z,16.60
2022-11-30T00:32:34.258Z,16.97
2022-11-30T00:35:01.871Z,17.00
2022-11-30T00:37:28.570Z,17.13
2022-11-30T00:39:55.273Z,17.83
2022-11-30T00:42:22.096Z,17.07
2022-11-30T00:44:49.143Z,17.87
2022-11-30T00:47:16.055Z,18.57
2022-11-30T00:49:42.728Z,18.83
2022-11-30T00:52:09.352Z,17.53
2022-11-30T00:54:35.990Z,17.23
2022-11-30T00:57:02.592Z,17.53
2022-11-30T00:59:29.494Z,16.53
2022-11-30T01:01:56.141Z,17.53
2022-11-30T01:04:23.532Z,17.17
2022-11-30T01:06:50.320Z,17.47
2022-11-30T01:09:17.749Z,17.13
2022-11-30T01:11:44.417Z,17.43
2022-11-30T01:14:11.298Z,16.93
2022-11-30T01:16:38.063Z,17.17
2022-11-30T01:19:04.865Z,16.70
2022-11-30T01:21:32.048Z,16.87
2022-11-30T01:23:58.792Z,18.27
2022-11-30T01:26:25.705Z,18.37
2022-11-30T01:28:54.411Z,18.43
2022-11-30T01:31:23.742Z,18.03
2022-11-30T01:33:52.872Z,18.00
2022-11-30T01:36:22.733Z,17.60
2022-11-30T01:38:52.452Z,17.63
2022-11-30T01:41:25.900Z,17.77
2022-11-30T01:43:55.994Z,19.40
2022-11-30T01:46:46.051Z,18.00
2022-11-30T01:49:41.959Z,18.80
2022-11-30T01:52:20.337Z,18.70
2022-11-30T01:54:56.531Z,19.37
2022-11-30T01:57:32.117Z,19.40
2022-11-30T02:00:01.843Z,19.27
2022-11-30T02:02:44.934Z,19.13
2022-11-30T02:05:13.238Z,19.43
2022-11-30T02:07:41.731Z,19.27
2022-11-30T02:10:17.976Z,18.57
2022-11-30T02:13:11.093Z,19.73
2022-11-30T02:16:04.442Z,19.03
2022-11-30T02:18:37.922Z,18.77
2022-11-30T02:21:12.431Z,17.93
2022-11-30T02:23:48.272Z,18.10
2022-11-30T02:26:31.054Z,18.83
2022-11-30T02:29:04.006Z,17.30
2022-11-30T02:31:41.633Z,18.77
2022-11-30T02:34:12.708Z,19.00
2022-11-30T02:36:40.278Z,19.40
2022-11-30T02:39:07.512Z,19.23
2022-11-30T02:41:39.403Z,19.23
2022-11-30T02:44:09.294Z,18.37
2022-11-30T02:46:55.035Z,18.50
2022-11-30T02:49:39.471Z,18.30
2022-11-30T02:52:08.596Z,17.40
2022-11-30T02:54:35.629Z,17.93
2022-11-30T02:57:02.698Z,18.37
2022-11-30T02:59:29.985Z,17.43
2022-11-30T03:01:57.504Z,19.17
2022-11-30T03:04:24.446Z,18.63
2022-11-30T03:06:51.127Z,18.20
2022-11-30T03:09:17.968Z,17.80
2022-11-30T03:11:45.073Z,18.73
2022-11-30T03:14:11.952Z,17.70
2022-11-30T03:16:39.856Z,17.33
2022-11-30T03:19:06.956Z,16.47
2022-11-30T03:21:33.649Z,18.37
2022-11-30T03:24:00.314Z,16.70
2022-11-30T03:26:27.113Z,16.80
2022-11-30T03:28:54.073Z,17.37
2022-11-30T03:31:21.071Z,17.63
2022-11-30T03:33:47.895Z,17.83
2022-11-30T03:36:14.979Z,18.17
2022-11-30T03:38:41.746Z,17.93
2022-11-30T03:41:11.878Z,17.67
2022-11-30T03:43:38.786Z,16.77
2022-11-30T03:46:06.641Z,17.20
2022-11-30T03:48:36.330Z,16.80
2022-11-30T03:51:04.718Z,17.67
2022-11-30T03:53:32.145Z,18.03
2022-11-30T03:56:02.036Z,17.60
2022-11-30T03:58:29.492Z,17.37
2022-11-30T04:01:06.449Z,18.87
2022-11-30T04:03:34.409Z,17.70
2022-11-30T04:06:02.347Z,18.13
2022-11-30T04:08:29.558Z,19.53
2022-11-30T04:10:58.403Z,19.57
2022-11-30T04:13:26.586Z,19.07
2022-11-30T04:15:54.588Z,17.33
2022-11-30T04:18:23.233Z,16.57
2022-11-30T04:20:52.395Z,16.70
2022-11-30T04:23:20.124Z,16.20
2022-11-30T04:25:48.093Z,15.90
2022-11-30T04:28:17.035Z,16.50
2022-11-30T04:30:44.408Z,17.60
2022-11-30T04:33:13.780Z,16.90
2022-11-30T04:35:47.150Z,18.47
2022-11-30T04:38:14.093Z,18.57
2022-11-30T04:40:42.013Z,18.17
2022-11-30T04:43:09.674Z,17.50
2022-11-30T04:45:36.736Z,18.23
2022-11-30T04:48:04.616Z,17.73
2022-11-30T04:50:32.430Z,16.90
2022-11-30T04:52:59.324Z,17.37
2022-11-30T04:55:26.278Z,16.73
2022-11-30T04:57:53.132Z,17.73
2022-11-30T05:00:20.885Z,16.90
2022-11-30T05:02:52.810Z,16.23
2022-11-30T05:05:20.465Z,16.50
2022-11-30T05:07:54.721Z,16.07
2022-11-30T05:10:21.496Z,18.07
2022-11-30T05:12:48.380Z,17.13
2022-11-30T05:15:14.930Z,17.60
2022-11-30T05:17:41.765Z,16.83
2022-11-30T05:20:08.836Z,16.20
2022-11-30T05:22:35.557Z,16.40
2022-11-30T05:25:02.729Z,17.47
2022-11-30T05:27:29.781Z,16.97
2022-11-30T05:29:56.478Z,16.90
2022-11-30T05:32:23.350Z,15.23
2022-11-30T05:34:51.834Z,16.20
2022-11-30T05:37:19.901Z,16.30
2022-11-30T05:39:46.708Z,14.93
2022-11-30T05:42:13.609Z,15.37
2022-11-30T05:44:40.487Z,14.13
2022-11-30T05:47:07.431Z,15.27
2022-11-30T05:49:34.288Z,15.87
2022-11-30T05:52:01.152Z,16.57
2022-11-30T05:54:28.050Z,16.70
2022-11-30T05:56:55.440Z,16.63
2022-11-30T05:59:23.044Z,15.73
2022-11-30T06:01:52.633Z,15.80
2022-11-30T06:04:19.812Z,15.40
2022-11-30T06:06:46.903Z,16.07
2022-11-30T06:09:13.548Z,16.63
2022-11-30T06:11:40.455Z,16.57
2022-11-30T06:14:07.672Z,17.50
2022-11-30T06:16:34.509Z,18.17
2022-11-30T06:19:01.442Z,18.83
2022-11-30T06:21:28.179Z,21.13
2022-11-30T06:23:55.028Z,20.53
2022-11-30T06:26:22.067Z,18.80
2022-11-30T06:28:49.184Z,19.90
2022-11-30T06:31:16.649Z,19.63
2022-11-30T06:33:43.532Z,19.20
2022-11-30T06:36:10.613Z,18.47
2022-11-30T06:38:37.749Z,18.53
2022-11-30T06:41:09.779Z,18.43
2022-11-30T06:43:38.144Z,18.07
2022-11-30T06:46:06.474Z,18.37
2022-11-30T06:48:33.698Z,18.77
2022-11-30T06:51:00.682Z,18.70
2022-11-30T06:53:27.941Z,19.40
2022-11-30T06:55:54.519Z,18.60
2022-11-30T06:58:21.290Z,18.67
2022-11-30T07:00:47.961Z,18.87
2022-11-30T07:03:14.755Z,18.00
2022-11-30T07:05:44.076Z,18.67
2022-11-30T07:08:12.490Z,18.83
2022-11-30T07:10:40.915Z,19.47
2022-11-30T07:13:11.045Z,18.57
2022-11-30T07:15:38.484Z,17.50
2022-11-30T07:18:05.678Z,19.47
2022-11-30T07:20:32.395Z,22.17
2022-11-30T07:23:19.075Z,21.50
2022-11-30T07:26:04.488Z,23.27
2022-11-30T07:28:31.159Z,21.70
2022-11-30T07:30:57.981Z,21.07
2022-11-30T07:33:24.720Z,22.63
2022-11-30T07:35:54.459Z,22.50
2022-11-30T07:38:21.340Z,21.87
2022-11-30T07:40:48.091Z,22.53
2022-11-30T07:43:15.764Z,20.97
2022-11-30T07:45:42.564Z,20.07
2022-11-30T07:48:10.051Z,20.30
2022-11-30T07:50:36.820Z,19.93
2022-11-30T07:53:03.506Z,19.87
2022-11-30T07:55:31.164Z,19.03
2022-11-30T07:57:57.965Z,18.37
2022-11-30T08:00:24.775Z,17.30
2022-11-30T08:02:54.711Z,15.83
2022-11-30T08:06:21.399Z,15.73
2022-11-30T08:08:58.237Z,16.60
2022-11-30T08:11:33.451Z,15.13
2022-11-30T08:14:05.280Z,17.57
2022-11-30T08:16:46.176Z,15.77
2022-11-30T08:19:20.861Z,14.27
2022-11-30T08:21:58.923Z,13.97
2022-11-30T08:24:25.939Z,14.03
2022-11-30T08:26:57.130Z,13.03
2022-11-30T08:29:29.446Z,11.17
2022-11-30T08:32:06.139Z,10.70
2022-11-30T08:34:48.145Z,11.87
2022-11-30T08:37:18.586Z,11.63
2022-11-30T08:42:39.658Z,10.60
2022-11-30T08:52:36.754Z,11.60
2022-11-30T08:55:03.593Z,11.10
2022-11-30T08:57:31.264Z,11.83
2022-11-30T08:59:57.762Z,12.50
2022-11-30T09:02:24.269Z,12.30
2022-11-30T09:04:51.723Z,12.73
2022-11-30T09:07:18.373Z,12.47
2022-11-30T09:09:44.980Z,11.53
2022-11-30T09:12:11.460Z,12.13
2022-11-30T09:14:37.942Z,13.10
2022-11-30T09:17:04.966Z,13.40
2022-11-30T09:19:31.615Z,13.00
2022-11-30T09:21:58.072Z,12.57
2022-11-30T09:24:24.611Z,13.87
2022-11-30T09:26:51.083Z,13.77
2022-11-30T09:29:17.636Z,14.33
2022-11-30T09:31:44.201Z,13.37
2022-11-30T09:34:12.100Z,12.17
2022-11-30T09:36:38.700Z,12.73
2022-11-30T09:39:06.432Z,12.83
2022-11-30T09:41:58.565Z,12.37
2022-11-30T09:44:30.245Z,12.73
2022-11-30T09:47:08.476Z,12.93
2022-11-30T09:49:41.231Z,12.40
2022-11-30T09:52:15.902Z,12.50
2022-11-30T09:54:44.939Z,11.33
2022-11-30T09:57:23.718Z,11.37
2022-11-30T09:59:56.684Z,11.80
2022-11-30T10:02:38.420Z,11.47
2022-11-30T10:05:17.141Z,10.20
2022-11-30T10:08:05.280Z,10.40
2022-11-30T10:10:46.857Z,9.90
2022-11-30T10:13:42.089Z,8.30
2022-11-30T10:16:11.635Z,8.40
2022-11-30T10:18:48.331Z,8.90
2022-11-30T10:21:51.822Z,8.53
2022-11-30T10:24:35.774Z,8.67
2022-11-30T10:27:17.463Z,8.40
2022-11-30T10:29:44.267Z,8.13
2022-11-30T10:32:20.223Z,9.00
2022-11-30T10:34:58.409Z,8.20
2022-11-30T10:37:38.581Z,9.07
2022-11-30T10:40:10.969Z,9.70
2022-11-30T10:43:18.217Z,9.53
2022-11-30T10:45:50.635Z,9.50
2022-11-30T10:48:39.662Z,10.20
2022-11-30T10:51:09.827Z,10.17
2022-11-30T10:53:37.964Z,10.77
2022-11-30T10:56:16.756Z,10.70
2022-11-30T10:58:53.265Z,10.80
2022-11-30T11:01:37.834Z,10.53
2022-11-30T11:04:25.411Z,11.20
2022-11-30T11:06:55.497Z,10.93
2022-11-30T11:09:37.514Z,10.57
2022-11-30T11:12:15.738Z,10.37
2022-11-30T11:14:42.414Z,10.63
2022-11-30T11:17:17.960Z,11.47
2022-11-30T11:19:46.543Z,10.50
2022-11-30T11:22:17.734Z,10.13
2022-11-30T11:24:45.144Z,10.87
2022-11-30T11:27:20.842Z,11.73
2022-11-30T11:30:05.915Z,12.23
2022-11-30T11:32:32.689Z,11.00
2022-11-30T11:34:59.471Z,10.93
2022-11-30T11:38:28.554Z,11.33
2022-11-30T11:40:59.588Z,10.60
2022-11-30T11:43:29.852Z,9.90
2022-11-30T11:46:09.913Z,11.07
2022-11-30T11:48:40.293Z,11.53
2022-11-30T11:51:09.705Z,12.43
2022-11-30T11:53:53.842Z,12.40
2022-11-30T11:56:25.913Z,11.93
2022-11-30T11:58:59.699Z,11.47
2022-11-30T12:01:54.151Z,12.87
2022-11-30T12:04:49.628Z,11.03
2022-11-30T12:07:38.500Z,11.57
2022-11-30T12:10:22.108Z,12.30
2022-11-30T12:12:55.330Z,11.20
2022-11-30T12:15:46.780Z,11.57
2022-11-30T12:18:36.687Z,11.23
2022-11-30T12:21:25.055Z,11.30
2022-11-30T12:24:24.073Z,10.90
2022-11-30T12:26:59.360Z,9.73
2022-11-30T12:29:59.684Z,10.50
2022-11-30T12:32:46.228Z,11.10
2022-11-30T12:35:32.965Z,11.03
2022-11-30T12:38:17.967Z,11.17
2022-11-30T12:40:47.380Z,10.63
2022-11-30T12:43:39.218Z,10.07
2022-11-30T12:46:47.923Z,10.93
2022-11-30T12:49:35.849Z,13.23
2022-11-30T12:52:05.304Z,11.83
2022-11-30T12:54:59.011Z,10.90
2022-11-30T12:57:38.522Z,11.80
2022-11-30T13:00:22.226Z,11.80
2022-11-30T13:03:06.026Z,10.43
2022-11-30T13:05:53.913Z,9.60
2022-11-30T13:08:27.119Z,10.00
2022-11-30T13:11:06.249Z,9.47
2022-11-30T13:13:35.513Z,8.47
2022-11-30T13:16:05.788Z,8.80
2022-11-30T13:18:34.735Z,8.53
2022-11-30T13:21:08.369Z,9.30
2022-11-30T13:23:44.611Z,8.80
2022-11-30T13:26:32.588Z,9.60
2022-11-30T13:29:47.609Z,9.67
2022-11-30T13:32:55.460Z,9.80
2022-11-30T13:35:30.324Z,9.73
2022-11-30T13:38:35.039Z,9.03
2022-11-30T13:41:09.527Z,9.73
2022-11-30T13:43:47.808Z,9.50
2022-11-30T13:46:20.721Z,11.80
2022-11-30T13:48:48.266Z,11.80
2022-11-30T13:51:34.065Z,13.17
2022-11-30T13:54:38.564Z,12.00
2022-11-30T13:57:18.144Z,12.73
2022-11-30T13:59:46.669Z,12.07
2022-11-30T14:02:31.860Z,11.40
2022-11-30T14:05:16.590Z,11.63
2022-11-30T14:07:52.531Z,10.37
2022-11-30T14:10:35.361Z,11.40
2022-11-30T14:13:02.589Z,11.17
2022-11-30T14:15:49.002Z,11.93
2022-11-30T14:18:26.711Z,10.97
2022-11-30T14:21:14.939Z,12.20
2022-11-30T14:23:53.200Z,11.57
2022-11-30T14:26:25.295Z,13.23
2022-11-30T14:29:10.052Z,15.47
2022-11-30T14:31:52.780Z,20.73
2022-11-30T14:34:38.703Z,20.13
2022-11-30T14:37:23.705Z,17.27
2022-11-30T14:39:53.626Z,58.23
2022-11-30T14:42:25.868Z,38.03
2022-11-30T14:44:53.248Z,24.30
2022-11-30T14:47:24.475Z,54.33
2022-11-30T14:49:53.096Z,77.00
2022-11-30T14:52:49.496Z,70.43
2022-11-30T14:55:43.853Z,24.53
2022-11-30T14:58:18.028Z,15.73
2022-11-30T15:00:45.491Z,23.20
2022-11-30T15:03:28.741Z,19.03
2022-11-30T15:06:02.162Z,17.80
2022-11-30T15:08:49.922Z,17.63
2022-11-30T15:11:17.594Z,16.43
2022-11-30T15:13:47.679Z,15.77
2022-11-30T15:16:21.712Z,16.30
2022-11-30T15:18:49.485Z,16.17
2022-11-30T15:21:24.808Z,15.97
2022-11-30T15:23:56.285Z,15.73
2022-11-30T15:26:32.551Z,16.23
2022-11-30T15:29:07.421Z,16.40
2022-11-30T15:31:37.832Z,15.93
2022-11-30T15:34:06.170Z,18.50
2022-11-30T15:36:38.212Z,17.07
2022-11-30T15:39:07.454Z,16.97
2022-11-30T15:41:35.574Z,17.10
2022-11-30T15:44:02.453Z,19.03
2022-11-30T15:46:42.732Z,19.27
2022-11-30T15:49:12.681Z,61.00
2022-11-30T15:51:41.803Z,145.13
2022-11-30T15:54:08.258Z,61.20
2022-11-30T15:56:35.036Z,98.17
2022-11-30T15:59:22.964Z,80.67
2022-11-30T16:02:16.433Z,55.30
2022-11-30T16:04:58.016Z,35.73
2022-11-30T16:07:27.422Z,26.80
2022-11-30T16:10:13.730Z,16.40
2022-11-30T16:12:45.874Z,21.77
2022-11-30T16:15:24.038Z,28.77
2022-11-30T16:17:52.113Z,16.67
2022-11-30T16:20:20.794Z,18.57
2022-11-30T16:22:48.800Z,20.27
2022-11-30T16:25:21.937Z,23.10
2022-11-30T16:27:48.907Z,18.90
2022-11-30T16:30:21.485Z,19.87
2022-11-30T16:32:48.087Z,19.20
2022-11-30T16:35:30.107Z,18.40
2022-11-30T16:37:56.641Z,16.73
2022-11-30T16:40:23.182Z,12.87
2022-11-30T16:42:51.085Z,13.43
2022-11-30T16:45:21.508Z,13.00
2022-11-30T16:47:48.534Z,12.13
2022-11-30T16:50:15.272Z,14.00
2022-11-30T16:52:42.319Z,13.47
2022-11-30T16:55:14.186Z,12.60
2022-11-30T16:57:40.675Z,12.17
2022-11-30T17:00:09.046Z,13.40
2022-11-30T17:02:39.754Z,15.13
2022-11-30T17:05:07.408Z,13.80
2022-11-30T17:07:36.310Z,13.83
2022-11-30T17:10:05.009Z,14.87
2022-11-30T17:12:31.761Z,13.80
2022-11-30T17:14:58.300Z,11.17
2022-11-30T17:17:24.797Z,11.03
2022-11-30T17:19:51.271Z,11.30
2022-11-30T17:22:17.759Z,10.70
2022-11-30T17:24:44.219Z,11.07
2022-11-30T17:27:11.950Z,12.97
2022-11-30T17:29:39.849Z,11.67
2022-11-30T17:32:06.440Z,12.43
2022-11-30T17:34:32.951Z,13.27
2022-11-30T17:36:59.490Z,12.63
2022-11-30T17:39:26.149Z,12.87
2022-11-30T17:41:52.681Z,13.33
2022-11-30T17:44:19.220Z,17.80
2022-11-30T17:46:48.845Z,15.57
2022-11-30T17:49:18.055Z,14.30
2022-11-30T17:51:44.595Z,13.73
2022-11-30T17:54:11.383Z,14.03
2022-11-30T17:56:38.177Z,13.77
2022-11-30T17:59:04.933Z,16.53
2022-11-30T18:01:31.474Z,16.67
2022-11-30T18:03:58.896Z,17.20
2022-11-30T18:06:25.403Z,17.20
2022-11-30T18:08:52.505Z,15.93
2022-11-30T18:11:21.145Z,14.00
2022-11-30T18:13:50.026Z,13.17
2022-11-30T18:16:19.709Z,12.10
2022-11-30T18:18:48.420Z,10.20
2022-11-30T18:21:17.555Z,10.47
2022-11-30T18:23:44.285Z,9.87
2022-11-30T18:26:13.870Z,9.07
2022-11-30T18:28:40.693Z,9.87
2022-11-30T18:31:07.478Z,9.33
2022-11-30T18:33:35.722Z,9.73
2022-11-30T18:36:03.427Z,10.33
2022-11-30T18:38:37.075Z,10.50
2022-11-30T18:41:05.217Z,10.67
2022-11-30T18:43:33.404Z,10.40
2022-11-30T18:46:04.966Z,10.33
2022-11-30T18:48:31.756Z,10.93
2022-11-30T18:50:58.292Z,11.13
2022-11-30T18:53:24.910Z,12.03
2022-11-30T18:55:51.441Z,11.80
2022-11-30T18:58:17.930Z,14.17
2022-11-30T19:00:44.440Z,14.53
2022-11-30T19:03:10.898Z,14.73
2022-11-30T19:05:39.684Z,13.80
2022-11-30T19:08:09.165Z,14.17
2022-11-30T19:10:37.923Z,13.87
2022-11-30T19:13:05.551Z,14.73
2022-11-30T19:15:39.395Z,14.07
2022-11-30T19:18:06.390Z,12.53
2022-11-30T19:20:40.789Z,12.13
2022-11-30T19:23:07.343Z,12.07
2022-11-30T19:25:33.954Z,12.70
2022-11-30T19:28:00.528Z,12.97
2022-11-30T19:30:27.147Z,13.27
2022-11-30T19:32:53.747Z,12.83
2022-11-30T19:35:22.940Z,14.17
2022-11-30T19:37:51.773Z,13.23
2022-11-30T19:40:18.521Z,12.43
2022-11-30T19:42:44.985Z,11.83
2022-11-30T19:45:11.475Z,12.17
2022-11-30T19:47:37.943Z,11.33
2022-11-30T19:50:04.985Z,11.50
2022-11-30T19:52:31.427Z,10.40
2022-11-30T19:54:58.152Z,10.00
2022-11-30T19:57:24.624Z,9.83
2022-11-30T19:59:51.128Z,8.97
2022-11-30T20:02:17.628Z,8.13
2022-11-30T20:04:44.144Z,6.93
2022-11-30T20:07:10.621Z,6.13
2022-11-30T20:09:37.238Z,6.10
2022-11-30T20:12:03.871Z,6.07
2022-11-30T20:14:30.393Z,7.00
2022-11-30T20:16:56.923Z,6.80
2022-11-30T20:19:23.860Z,6.33
2022-11-30T20:21:51.125Z,6.53
2022-11-30T20:24:17.634Z,6.40
2022-11-30T20:26:44.386Z,6.67
2022-11-30T20:29:14.298Z,6.50
2022-11-30T20:31:41.897Z,7.00
2022-11-30T20:34:10.313Z,7.13
2022-11-30T20:36:37.416Z,6.67
2022-11-30T20:39:04.684Z,7.70
2022-11-30T20:41:31.431Z,7.17
2022-11-30T20:43:58.043Z,8.00
2022-11-30T20:46:27.172Z,7.83
2022-11-30T20:48:54.677Z,9.07
2022-11-30T20:51:33.060Z,9.53
2022-11-30T20:54:11.263Z,10.07
2022-11-30T20:56:38.380Z,10.73
2022-11-30T20:59:08.758Z,10.33
2022-11-30T21:01:35.764Z,11.20
2022-11-30T21:04:02.301Z,11.50
2022-11-30T21:06:31.914Z,11.80
2022-11-30T21:08:59.393Z,11.43
2022-11-30T21:11:27.517Z,11.40
2022-11-30T21:13:54.248Z,11.93
2022-11-30T21:16:27.631Z,13.33
2022-11-30T21:18:56.165Z,13.00
2022-11-30T21:21:25.929Z,12.80
2022-11-30T21:23:52.764Z,13.23
2022-11-30T21:26:23.721Z,12.93
2022-11-30T21:28:55.625Z,12.33
2022-11-30T21:31:23.486Z,14.07
2022-11-30T21:33:53.469Z,14.17
2022-11-30T21:36:22.015Z,14.97
2022-11-30T21:38:53.591Z,14.60
2022-11-30T21:41:20.110Z,16.17
2022-11-30T21:43:46.580Z,17.03
2022-11-30T21:46:15.800Z,16.10
2022-11-30T21:48:44.307Z,17.10
2022-11-30T21:51:16.597Z,17.07
2022-11-30T21:53:45.740Z,18.47
2022-11-30T21:56:14.932Z,19.60
2022-11-30T21:58:43.444Z,18.67
2022-11-30T22:01:21.892Z,19.40
2022-11-30T22:03:48.399Z,19.67
2022-11-30T22:06:17.165Z,20.03
2022-11-30T22:08:44.192Z,18.13
2022-11-30T22:11:16.311Z,18.17
2022-11-30T22:13:43.708Z,18.20
2022-11-30T22:16:15.818Z,17.43
2022-11-30T22:18:43.594Z,16.90
2022-11-30T22:21:21.758Z,16.67
2022-11-30T22:23:53.626Z,15.33
2022-11-30T22:26:22.998Z,16.77
2022-11-30T22:28:57.694Z,16.53
2022-11-30T22:31:26.971Z,15.73
2022-11-30T22:33:53.693Z,16.87
2022-11-30T22:36:22.452Z,17.20
2022-11-30T22:38:57.484Z,16.40
2022-11-30T22:41:25.008Z,17.47
2022-11-30T22:43:51.800Z,17.50
2022-11-30T22:46:21.056Z,17.50
2022-11-30T22:48:47.866Z,17.63
2022-11-30T22:51:23.250Z,18.03
2022-11-30T22:53:50.943Z,17.37
2022-11-30T22:56:28.991Z,17.10
2022-11-30T22:58:59.858Z,16.20
2022-11-30T23:01:32.505Z,17.13
2022-11-30T23:04:05.115Z,16.87
2022-11-30T23:06:32.584Z,16.87
2022-11-30T23:08:59.449Z,17.27
2022-11-30T23:11:27.192Z,17.73
2022-11-30T23:13:53.792Z,17.20
2022-11-30T23:16:20.739Z,17.37
2022-11-30T23:18:54.471Z,17.93
2022-11-30T23:21:25.599Z,17.37
2022-11-30T23:23:52.862Z,17.60
2022-11-30T23:26:22.354Z,18.10
2022-11-30T23:28:50.818Z,19.20
2022-11-30T23:31:33.503Z,18.73
2022-11-30T23:34:04.835Z,18.63
2022-11-30T23:36:32.287Z,18.50
2022-11-30T23:39:02.018Z,18.50
2022-11-30T23:41:28.893Z,17.87
2022-11-30T23:43:55.598Z,19.33
2022-11-30T23:46:22.159Z,18.53
2022-11-30T23:48:49.070Z,19.27
2022-11-30T23:51:15.833Z,17.33
2022-11-30T23:53:42.371Z,18.63
2022-11-30T23:56:13.227Z,18.13
2022-11-30T23:58:39.767Z,17.20
